createdAt,value
2018-12-07T00:01:54.537Z,12.10
2018-12-07T00:04:28.130Z,12.10
2018-12-07T00:07:01.795Z,12.10
2018-12-07T00:09:35.379Z,12.10
2018-12-07T00:12:08.999Z,12.10
2018-12-07T00:14:42.640Z,12.10
2018-12-07T00:17:16.196Z,12.10
2018-12-07T00:19:50.769Z,12.10
2018-12-07T00:22:24.322Z,12.10
2018-12-07T00:24:57.931Z,12.10
2018-12-07T00:27:31.465Z,12.10
2018-12-07T00:30:05.035Z,12.00
2018-12-07T00:32:38.902Z,12.10
2018-12-07T00:35:13.101Z,12.10
2018-12-07T00:37:46.648Z,12.10
2018-12-07T00:40:20.227Z,12.10
2018-12-07T00:42:54.563Z,12.10
2018-12-07T00:45:28.324Z,12.10
2018-12-07T00:48:01.900Z,12.10
2018-12-07T00:50:35.467Z,12.10
2018-12-07T00:53:09.025Z,12.10
2018-12-07T00:55:42.671Z,12.10
2018-12-07T00:58:17.010Z,12.10
2018-12-07T01:00:50.827Z,12.10
2018-12-07T01:03:24.409Z,12.10
2018-12-07T01:05:58.020Z,12.10
2018-12-07T01:08:31.830Z,12.10
2018-12-07T01:11:05.409Z,12.10
2018-12-07T01:13:40.025Z,12.20
2018-12-07T01:16:13.838Z,12.20
2018-12-07T01:18:47.432Z,12.20
2018-12-07T01:21:21.044Z,12.20
2018-12-07T01:23:54.852Z,12.20
2018-12-07T01:26:28.460Z,12.20
2018-12-07T01:29:02.384Z,12.20
2018-12-07T01:31:35.893Z,12.10
2018-12-07T01:34:10.487Z,12.10
2018-12-07T01:36:44.132Z,12.10
2018-12-07T01:39:17.718Z,12.10
2018-12-07T01:41:52.002Z,12.10
2018-12-07T01:44:25.672Z,12.10
2018-12-07T01:46:59.412Z,12.10
2018-12-07T01:49:32.940Z,12.20
2018-12-07T01:52:07.576Z,12.20
2018-12-07T01:54:41.953Z,12.20
2018-12-07T01:57:16.429Z,12.20
2018-12-07T01:59:50.156Z,12.20
2018-12-07T02:02:23.825Z,12.20
2018-12-07T02:04:57.378Z,12.20
2018-12-07T02:07:31.045Z,12.20
2018-12-07T02:10:04.844Z,12.20
2018-12-07T02:12:39.220Z,12.20
2018-12-07T02:15:12.920Z,12.20
2018-12-07T02:17:46.515Z,12.20
2018-12-07T02:20:20.304Z,12.20
2018-12-07T02:22:53.942Z,12.20
2018-12-07T02:25:27.718Z,12.20
2018-12-07T02:28:01.303Z,12.20
2018-12-07T02:30:35.132Z,12.20
2018-12-07T02:33:08.729Z,12.30
2018-12-07T02:35:42.319Z,12.30
2018-12-07T02:38:15.882Z,12.30
2018-12-07T02:40:49.426Z,12.30
2018-12-07T02:43:23.046Z,12.30
2018-12-07T02:45:56.584Z,12.20
2018-12-07T02:48:30.947Z,12.20
2018-12-07T02:51:04.685Z,12.20
2018-12-07T02:53:38.323Z,12.20
2018-12-07T02:56:11.982Z,12.20
2018-12-07T02:58:46.492Z,12.20
2018-12-07T03:01:20.892Z,12.20
2018-12-07T03:03:54.465Z,12.20
2018-12-07T03:06:28.033Z,12.20
2018-12-07T03:09:02.426Z,12.20
2018-12-07T03:11:36.831Z,12.20
2018-12-07T03:14:11.385Z,12.10
2018-12-07T03:16:44.964Z,12.10
2018-12-07T03:19:19.980Z,12.20
2018-12-07T03:21:53.667Z,12.20
2018-12-07T03:24:27.331Z,12.20
2018-12-07T03:27:01.816Z,12.20
2018-12-07T03:29:35.410Z,12.20
2018-12-07T03:32:09.778Z,12.20
2018-12-07T03:34:43.548Z,12.20
2018-12-07T03:37:18.288Z,12.20
2018-12-07T03:39:52.020Z,12.20
2018-12-07T03:42:25.829Z,12.30
2018-12-07T03:44:59.572Z,12.30
2018-12-07T03:47:33.398Z,12.30
2018-12-07T03:50:07.007Z,12.30
2018-12-07T03:52:40.633Z,12.30
2018-12-07T03:55:15.228Z,12.30
2018-12-07T03:57:49.612Z,12.40
2018-12-07T04:00:23.185Z,12.30
2018-12-07T04:02:57.564Z,12.40
2018-12-07T04:05:31.296Z,12.30
2018-12-07T04:08:04.987Z,12.30
2018-12-07T04:10:38.780Z,12.30
2018-12-07T04:13:12.420Z,12.30
2018-12-07T04:15:45.960Z,12.30
2018-12-07T04:18:19.596Z,12.30
2018-12-07T04:20:54.135Z,12.30
2018-12-07T04:23:27.852Z,12.30
2018-12-07T04:26:01.688Z,12.30
2018-12-07T04:28:36.291Z,12.30
2018-12-07T04:31:09.157Z,12.30
2018-12-07T04:33:42.759Z,12.30
2018-12-07T04:36:16.571Z,12.30
2018-12-07T04:38:50.215Z,12.40
2018-12-07T04:41:23.959Z,12.40
2018-12-07T04:43:58.304Z,12.40
2018-12-07T04:46:32.077Z,12.40
2018-12-07T04:49:05.691Z,12.40
2018-12-07T04:51:40.177Z,12.40
2018-12-07T04:54:13.972Z,12.40
2018-12-07T04:56:47.796Z,12.40
2018-12-07T04:59:21.451Z,12.50
2018-12-07T05:01:55.304Z,12.50
2018-12-07T05:04:29.073Z,12.50
2018-12-07T05:07:02.841Z,12.40
2018-12-07T05:09:36.565Z,12.50
2018-12-07T05:12:10.153Z,12.50
2018-12-07T05:14:43.853Z,12.50
2018-12-07T05:17:17.475Z,12.40
2018-12-07T05:19:51.139Z,12.50
2018-12-07T05:22:24.876Z,12.50
2018-12-07T05:24:58.498Z,12.50
2018-12-07T05:27:32.154Z,12.60
2018-12-07T05:30:05.740Z,12.50
2018-12-07T05:32:39.537Z,12.60
2018-12-07T05:35:13.338Z,12.50
2018-12-07T05:37:47.808Z,12.60
2018-12-07T05:40:21.518Z,12.60
2018-12-07T05:42:55.086Z,12.60
2018-12-07T05:45:28.780Z,12.60
2018-12-07T05:48:03.295Z,12.60
2018-12-07T05:50:37.006Z,12.60
2018-12-07T05:53:10.596Z,12.60
2018-12-07T05:55:44.212Z,12.60
2018-12-07T05:58:17.797Z,12.60
2018-12-07T06:00:51.366Z,12.60
2018-12-07T06:03:25.249Z,12.60
2018-12-07T06:05:58.942Z,12.60
2018-12-07T06:08:32.525Z,12.60
2018-12-07T06:11:06.324Z,12.60
2018-12-07T06:13:39.930Z,12.60
2018-12-07T06:16:13.510Z,12.70
2018-12-07T06:18:48.140Z,12.60
2018-12-07T06:21:21.821Z,12.60
2018-12-07T06:23:55.567Z,12.60
2018-12-07T06:26:29.184Z,12.60
2018-12-07T06:29:02.961Z,12.50
2018-12-07T06:31:36.768Z,12.80
2018-12-07T06:34:11.230Z,13.10
2018-12-07T06:36:45.043Z,13.10
2018-12-07T06:39:18.747Z,13.20
2018-12-07T06:41:53.068Z,13.20
2018-12-07T06:44:26.645Z,13.20
2018-12-07T06:47:02.138Z,13.00
2018-12-07T06:49:35.785Z,12.90
2018-12-07T06:52:09.374Z,12.80
2018-12-07T06:54:43.107Z,12.70
2018-12-07T06:57:17.417Z,12.70
2018-12-07T06:59:51.103Z,12.70
2018-12-07T07:02:24.694Z,12.70
2018-12-07T07:04:58.314Z,12.70
2018-12-07T07:07:32.067Z,12.70
2018-12-07T07:10:05.908Z,12.70
2018-12-07T07:12:40.364Z,12.70
2018-12-07T07:15:14.111Z,12.70
2018-12-07T07:17:48.612Z,12.70
2018-12-07T07:20:23.204Z,12.70
2018-12-07T07:22:56.877Z,12.70
2018-12-07T07:25:30.597Z,12.70
2018-12-07T07:28:04.338Z,12.70
2018-12-07T07:30:37.944Z,12.60
2018-12-07T07:33:12.637Z,12.60
2018-12-07T07:35:47.151Z,12.60
2018-12-07T07:38:20.734Z,12.60
2018-12-07T07:40:55.165Z,12.60
2018-12-07T07:43:28.904Z,12.60
2018-12-07T07:46:03.455Z,12.60
2018-12-07T07:48:37.117Z,12.60
2018-12-07T07:51:10.732Z,12.60
2018-12-07T07:53:44.312Z,12.60
2018-12-07T07:56:17.879Z,12.60
2018-12-07T07:58:54.387Z,12.60
2018-12-07T08:01:28.328Z,12.60
2018-12-07T08:04:01.946Z,12.60
2018-12-07T08:06:35.539Z,12.70
2018-12-07T08:09:09.364Z,12.70
2018-12-07T08:11:43.089Z,12.70
2018-12-07T08:14:16.933Z,12.70
2018-12-07T08:16:50.761Z,12.70
2018-12-07T08:19:24.476Z,12.60
2018-12-07T08:21:59.102Z,12.60
2018-12-07T08:24:32.886Z,12.60
2018-12-07T08:27:06.576Z,12.70
2018-12-07T08:29:41.119Z,12.70
2018-12-07T08:32:14.953Z,12.70
2018-12-07T08:34:48.518Z,12.70
2018-12-07T08:37:22.352Z,12.70
2018-12-07T08:39:56.777Z,12.70
2018-12-07T08:42:30.534Z,12.70
2018-12-07T08:45:05.063Z,12.80
2018-12-07T08:47:38.812Z,12.80
2018-12-07T08:50:12.594Z,12.80
2018-12-07T08:52:47.149Z,12.90
2018-12-07T08:55:20.916Z,13.00
2018-12-07T08:57:54.777Z,13.00
2018-12-07T09:00:29.161Z,13.00
2018-12-07T09:03:02.783Z,13.00
2018-12-07T09:05:36.419Z,13.10
2018-12-07T09:08:15.083Z,13.20
2018-12-07T09:10:43.795Z,13.20
2018-12-07T09:13:17.603Z,13.20
2018-12-07T09:15:51.278Z,13.30
2018-12-07T09:18:25.163Z,13.30
2018-12-07T09:20:58.931Z,13.30
2018-12-07T09:23:32.729Z,13.40
2018-12-07T09:26:06.390Z,13.30
2018-12-07T09:28:40.349Z,13.10
2018-12-07T09:31:14.053Z,13.10
2018-12-07T09:33:47.881Z,13.10
2018-12-07T09:36:21.608Z,13.10
2018-12-07T09:38:55.302Z,13.10
2018-12-07T09:41:28.929Z,13.10
2018-12-07T09:44:02.752Z,13.10
2018-12-07T09:46:36.490Z,13.00
2018-12-07T09:49:10.229Z,13.00
2018-12-07T09:54:40.655Z,13.00
2018-12-07T09:57:14.290Z,13.00
2018-12-07T09:59:47.858Z,13.00
2018-12-07T10:02:22.289Z,12.90
2018-12-07T10:04:56.013Z,12.90
2018-12-07T10:07:29.805Z,12.90
2018-12-07T10:10:04.260Z,13.00
2018-12-07T10:12:38.010Z,13.00
2018-12-07T10:15:27.071Z,13.00
2018-12-07T10:18:00.738Z,13.00
2018-12-07T10:20:34.504Z,13.10
2018-12-07T10:26:40.891Z,13.10
2018-12-07T10:29:14.547Z,13.10
2018-12-07T10:31:48.901Z,13.10
2018-12-07T10:34:25.442Z,13.10
2018-12-07T10:36:59.217Z,13.10
2018-12-07T10:39:33.680Z,13.10
2018-12-07T10:42:07.222Z,13.10
2018-12-07T10:44:40.996Z,13.10
2018-12-07T10:47:14.592Z,13.20
2018-12-07T10:49:48.145Z,13.30
2018-12-07T10:52:21.856Z,13.40
2018-12-07T10:54:55.507Z,13.40
2018-12-07T10:57:29.310Z,13.40
2018-12-07T11:00:03.137Z,13.50
2018-12-07T11:02:42.566Z,13.60
2018-12-07T11:05:22.477Z,13.80
2018-12-07T11:08:01.652Z,14.10
2018-12-07T11:10:41.287Z,14.40
2018-12-07T11:13:20.841Z,14.60
2018-12-07T11:16:01.116Z,14.50
2018-12-07T11:18:41.456Z,14.10
2018-12-07T11:21:21.031Z,14.10
2018-12-07T11:23:54.584Z,13.90
2018-12-07T11:26:34.863Z,13.70
2018-12-07T11:29:11.755Z,13.60
2018-12-07T11:31:51.201Z,13.60
2018-12-07T11:34:36.564Z,13.60
2018-12-07T11:37:10.375Z,13.60
2018-12-07T11:39:44.632Z,13.60
2018-12-07T11:42:18.260Z,13.60
2018-12-07T11:44:52.220Z,13.50
2018-12-07T11:47:26.008Z,13.50
2018-12-07T11:49:59.796Z,13.40
2018-12-07T11:52:33.634Z,13.40
2018-12-07T11:55:07.224Z,13.40
2018-12-07T11:57:41.294Z,13.40
2018-12-07T12:00:15.221Z,13.50
2018-12-07T12:02:53.202Z,13.50
2018-12-07T12:05:29.143Z,13.50
2018-12-07T12:08:02.830Z,13.60
2018-12-07T12:10:36.642Z,13.60
2018-12-07T12:13:10.398Z,13.60
2018-12-07T12:15:44.244Z,13.60
2018-12-07T12:18:18.898Z,13.50
2018-12-07T12:20:52.616Z,13.60
2018-12-07T12:23:26.978Z,13.60
2018-12-07T12:26:00.655Z,13.50
2018-12-07T12:28:34.253Z,13.50
2018-12-07T12:31:08.077Z,13.50
2018-12-07T12:33:42.678Z,13.40
2018-12-07T12:36:17.156Z,13.40
2018-12-07T12:38:50.505Z,13.30
2018-12-07T12:41:25.183Z,13.50
2018-12-07T12:46:53.958Z,13.60
2018-12-07T12:51:25.559Z,13.70
2018-12-07T12:54:00.838Z,13.70
2018-12-07T12:56:35.690Z,13.70
2018-12-07T12:59:12.592Z,13.60
2018-12-07T13:01:46.342Z,13.60
2018-12-07T13:04:20.177Z,13.60
2018-12-07T13:06:54.113Z,13.50
2018-12-07T13:09:30.855Z,13.40
2018-12-07T13:12:04.617Z,13.40
2018-12-07T13:14:38.368Z,13.40
2018-12-07T13:17:11.962Z,13.30
2018-12-07T13:19:46.139Z,13.30
2018-12-07T13:22:19.730Z,13.20
2018-12-07T13:24:53.566Z,13.10
2018-12-07T13:27:29.257Z,13.00
2018-12-07T13:30:03.193Z,13.00
2018-12-07T13:32:36.963Z,12.80
2018-12-07T13:35:10.758Z,12.70
2018-12-07T13:37:44.427Z,12.60
2018-12-07T13:40:20.737Z,12.60
2018-12-07T13:42:54.504Z,12.50
2018-12-07T13:45:28.541Z,12.40
2018-12-07T13:48:02.285Z,12.30
2018-12-07T13:50:41.889Z,12.20
2018-12-07T13:53:16.009Z,12.20
2018-12-07T13:55:49.714Z,12.30
2018-12-07T13:58:24.097Z,12.30
2018-12-07T14:00:57.705Z,12.30
2018-12-07T14:03:31.500Z,12.20
2018-12-07T14:06:05.312Z,12.20
2018-12-07T14:08:39.050Z,12.20
2018-12-07T14:11:13.539Z,12.20
2018-12-07T14:13:47.183Z,12.20
2018-12-07T14:16:21.038Z,12.20
2018-12-07T14:18:54.911Z,12.20
2018-12-07T14:21:28.775Z,12.30
2018-12-07T14:24:02.561Z,12.30
2018-12-07T14:26:36.257Z,12.30
2018-12-07T14:29:10.124Z,12.40
2018-12-07T14:31:43.714Z,12.50
2018-12-07T14:34:18.784Z,12.40
2018-12-07T14:36:52.454Z,12.50
2018-12-07T14:39:26.153Z,12.50
2018-12-07T14:41:59.964Z,12.50
2018-12-07T14:44:34.540Z,12.40
2018-12-07T14:47:08.413Z,12.40
2018-12-07T14:49:42.292Z,12.40
2018-12-07T14:52:16.771Z,12.30
2018-12-07T14:54:50.718Z,12.30
2018-12-07T14:57:24.291Z,12.30
2018-12-07T14:59:58.421Z,12.40
2018-12-07T15:02:32.687Z,12.40
2018-12-07T15:05:06.486Z,12.30
2018-12-07T15:07:40.412Z,12.30
2018-12-07T15:10:14.088Z,12.30
2018-12-07T15:12:47.828Z,12.30
2018-12-07T15:15:21.580Z,12.30
2018-12-07T15:17:55.526Z,12.30
2018-12-07T15:20:30.169Z,12.30
2018-12-07T15:23:03.164Z,12.30
2018-12-07T15:25:36.740Z,12.30
2018-12-07T15:28:10.434Z,12.30
2018-12-07T15:30:44.127Z,12.30
2018-12-07T15:33:17.737Z,12.30
2018-12-07T15:35:51.309Z,12.30
2018-12-07T15:38:25.298Z,12.30
2018-12-07T15:40:59.025Z,12.30
2018-12-07T15:43:32.699Z,12.30
2018-12-07T15:46:06.411Z,12.30
2018-12-07T15:48:40.104Z,12.30
2018-12-07T15:51:13.668Z,12.20
2018-12-07T15:53:47.924Z,12.30
2018-12-07T15:56:21.569Z,12.20
2018-12-07T15:58:55.365Z,12.20
2018-12-07T16:01:29.884Z,12.20
2018-12-07T16:04:03.424Z,12.20
2018-12-07T16:06:37.164Z,12.20
2018-12-07T16:09:12.666Z,12.20
2018-12-07T16:11:46.596Z,12.20
2018-12-07T16:14:20.280Z,12.10
2018-12-07T16:16:54.101Z,12.10
2018-12-07T16:19:28.042Z,12.10
2018-12-07T16:22:01.795Z,12.10
2018-12-07T16:24:35.295Z,12.20
2018-12-07T16:27:09.361Z,12.20
2018-12-07T16:29:43.800Z,12.20
2018-12-07T16:32:17.812Z,12.20
2018-12-07T16:34:51.190Z,12.20
2018-12-07T16:37:25.160Z,12.20
2018-12-07T16:39:58.665Z,12.20
2018-12-07T16:42:33.247Z,12.20
2018-12-07T16:45:06.858Z,12.20
2018-12-07T16:47:40.648Z,12.30
2018-12-07T16:50:14.667Z,12.30
2018-12-07T16:52:48.312Z,12.30
2018-12-07T16:55:22.698Z,12.40
2018-12-07T16:57:56.398Z,12.30
2018-12-07T17:00:30.379Z,12.40
2018-12-07T17:03:04.175Z,12.30
2018-12-07T17:05:37.549Z,12.30
2018-12-07T17:08:11.285Z,12.30
2018-12-07T17:10:45.042Z,12.30
2018-12-07T17:13:19.068Z,12.30
2018-12-07T17:15:55.385Z,12.30
2018-12-07T17:18:29.237Z,12.20
2018-12-07T17:21:03.750Z,12.20
2018-12-07T17:23:37.578Z,12.20
2018-12-07T17:26:11.082Z,12.30
2018-12-07T17:28:44.965Z,12.20
2018-12-07T17:31:19.137Z,12.10
2018-12-07T17:33:53.502Z,12.10
2018-12-07T17:36:27.034Z,12.10
2018-12-07T17:39:01.475Z,12.10
2018-12-07T17:41:35.194Z,12.10
2018-12-07T17:44:08.796Z,12.10
2018-12-07T17:46:42.546Z,12.10
2018-12-07T17:49:16.335Z,12.10
2018-12-07T17:51:50.199Z,12.10
2018-12-07T17:54:24.134Z,12.10
2018-12-07T17:56:57.650Z,12.10
2018-12-07T17:59:31.236Z,12.00
2018-12-07T18:02:04.862Z,12.10
2018-12-07T18:04:38.522Z,12.00
2018-12-07T18:07:12.364Z,12.00
2018-12-07T18:09:46.250Z,12.00
2018-12-07T18:12:20.215Z,11.90
2018-12-07T18:14:54.604Z,11.90
2018-12-07T18:17:28.635Z,11.90
2018-12-07T18:20:02.157Z,11.80
2018-12-07T18:22:35.862Z,11.80
2018-12-07T18:25:09.440Z,11.70
2018-12-07T18:27:44.296Z,11.70
2018-12-07T18:30:18.608Z,11.70
2018-12-07T18:32:52.346Z,11.70
2018-12-07T18:35:26.143Z,11.60
2018-12-07T18:38:00.202Z,11.60
2018-12-07T18:40:33.625Z,11.60
2018-12-07T18:43:07.374Z,11.60
2018-12-07T18:45:41.184Z,11.60
2018-12-07T18:48:15.092Z,11.60
2018-12-07T18:50:48.939Z,11.60
2018-12-07T18:53:22.497Z,11.50
2018-12-07T18:55:56.462Z,11.50
2018-12-07T18:58:30.784Z,11.40
2018-12-07T19:01:04.554Z,11.40
2018-12-07T19:03:38.160Z,11.40
2018-12-07T19:06:12.883Z,11.40
2018-12-07T19:08:46.386Z,11.40
2018-12-07T19:11:20.093Z,11.40
2018-12-07T19:13:53.800Z,11.30
2018-12-07T19:16:27.413Z,11.30
2018-12-07T19:19:01.856Z,11.30
2018-12-07T19:21:36.603Z,11.30
2018-12-07T19:24:10.552Z,11.30
2018-12-07T19:26:45.002Z,11.30
2018-12-07T19:29:19.517Z,11.40
2018-12-07T19:31:53.373Z,11.30
2018-12-07T19:34:27.070Z,11.30
2018-12-07T19:37:01.032Z,11.30
2018-12-07T19:39:34.613Z,11.30
2018-12-07T19:42:09.363Z,11.20
2018-12-07T19:44:42.951Z,11.20
2018-12-07T19:47:16.363Z,11.20
2018-12-07T19:49:50.291Z,11.20
2018-12-07T19:52:24.028Z,11.20
2018-12-07T19:54:57.577Z,11.20
2018-12-07T19:57:32.362Z,11.30
2018-12-07T20:00:05.972Z,11.20
2018-12-07T20:02:39.844Z,11.20
2018-12-07T20:05:13.832Z,11.10
2018-12-07T20:07:47.268Z,11.10
2018-12-07T20:10:21.049Z,11.10
2018-12-07T20:12:55.000Z,11.10
2018-12-07T20:15:29.278Z,11.10
2018-12-07T20:18:03.958Z,11.10
2018-12-07T20:20:37.701Z,11.10
2018-12-07T20:23:11.329Z,11.10
2018-12-07T20:25:45.128Z,11.00
2018-12-07T20:28:19.106Z,11.00
2018-12-07T20:30:52.880Z,11.00
2018-12-07T20:33:27.376Z,9.70
2018-12-07T20:36:01.042Z,9.60
2018-12-07T20:38:35.392Z,9.00
2018-12-07T20:41:09.113Z,8.90
2018-12-07T20:43:43.022Z,8.90
2018-12-07T20:46:16.784Z,8.80
2018-12-07T20:48:50.609Z,8.70
2018-12-07T20:51:26.275Z,8.70
2018-12-07T20:53:58.684Z,8.70
2018-12-07T20:56:32.353Z,8.70
2018-12-07T20:59:06.640Z,8.80
2018-12-07T21:01:40.288Z,8.70
2018-12-07T21:04:23.928Z,8.60
2018-12-07T21:20:40.751Z,8.50
2018-12-07T21:23:14.772Z,8.50
2018-12-07T21:25:48.218Z,8.50
2018-12-07T21:28:22.026Z,8.50
2018-12-07T21:30:55.573Z,8.50
2018-12-07T21:33:29.334Z,8.50
2018-12-07T21:36:10.332Z,8.50
2018-12-07T21:38:44.690Z,8.50
2018-12-07T21:41:18.343Z,8.40
2018-12-07T21:43:52.044Z,8.50
2018-12-07T21:46:25.662Z,8.50
2018-12-07T21:48:59.636Z,8.40
2018-12-07T21:51:48.857Z,8.40
2018-12-07T21:54:22.446Z,8.40
2018-12-07T21:56:56.493Z,8.40
2018-12-07T21:59:29.906Z,8.40
2018-12-07T22:02:03.680Z,8.50
2018-12-07T22:04:37.423Z,8.50
2018-12-07T22:07:11.152Z,8.60
2018-12-07T22:09:44.792Z,8.60
2018-12-07T22:12:18.569Z,8.70
2018-12-07T22:14:52.416Z,8.80
2018-12-07T22:17:26.227Z,8.90
2018-12-07T22:20:00.606Z,9.00
2018-12-07T22:22:35.260Z,9.00
2018-12-07T22:25:09.277Z,9.00
2018-12-07T22:27:42.599Z,8.90
2018-12-07T22:30:16.665Z,9.00
2018-12-07T22:32:50.100Z,9.00
2018-12-07T22:35:24.057Z,9.00
2018-12-07T22:37:58.728Z,8.70
2018-12-07T22:40:32.782Z,8.60
2018-12-07T22:43:06.640Z,8.60
2018-12-07T22:45:40.177Z,8.50
2018-12-07T22:48:14.262Z,8.50
2018-12-07T22:50:47.776Z,8.40
2018-12-07T22:53:21.723Z,8.40
2018-12-07T22:55:55.420Z,8.40
2018-12-07T22:58:30.038Z,8.40
2018-12-07T23:01:03.739Z,8.40
2018-12-07T23:03:37.292Z,8.40
2018-12-07T23:06:11.595Z,8.50
2018-12-07T23:08:45.428Z,8.50
2018-12-07T23:11:19.097Z,8.50
2018-12-07T23:13:52.732Z,8.60
2018-12-07T23:16:26.289Z,8.50
2018-12-07T23:18:59.941Z,8.50
2018-12-07T23:21:34.251Z,8.60
2018-12-07T23:24:08.083Z,8.50
2018-12-07T23:26:41.666Z,8.60
2018-12-07T23:29:22.349Z,8.60
2018-12-07T23:31:55.942Z,8.60
2018-12-07T23:34:29.514Z,8.60
2018-12-07T23:37:03.039Z,8.60
2018-12-07T23:39:36.684Z,8.60
2018-12-07T23:42:10.253Z,8.60
2018-12-07T23:44:44.071Z,8.60
2018-12-07T23:47:17.794Z,8.60
2018-12-07T23:49:52.262Z,8.50
2018-12-07T23:52:25.970Z,8.50
2018-12-07T23:54:59.675Z,8.50
2018-12-07T23:57:33.561Z,8.50
